Wetterdaten: April 2016
Datum Temp Feuchte Luftdruck Regen Wind Richtung Sonnenschein UV Solar Windben
01.04.2016 5,3 C 78 % 1020,5 hPa 0,2 l/m 0,6 km/h SO 8,83 h 2,1 UV-I 408 W/m 2,8 km/h
02.04.2016 9,8 C 76 % 1016,1 hPa 0,0 l/m 2,9 km/h S-SO 8,33 h 2,1 UV-I 356 W/m 10,8 km/h
03.04.2016 13,2 C 82 % 1010,3 hPa 0,0 l/m 1,9 km/h S 4,17 h 1,5 UV-I 232 W/m 4,4 km/h
04.04.2016 12,8 C 84 % 1006,6 hPa 2,4 l/m 1,4 km/h S-SO 2,92 h 1,7 UV-I 236 W/m 5,7 km/h
05.04.2016 10,5 C 91 % 1006,6 hPa 8,2 l/m 3,6 km/h S-SO 0,00 h 1,1 UV-I 84 W/m 10,4 km/h
06.04.2016 9,9 C 79 % 1007,0 hPa 1,2 l/m 5,5 km/h S-SW 1,75 h 1,6 UV-I 201 W/m 14,5 km/h
07.04.2016 5,6 C 81 % 1009,4 hPa 1,8 l/m 3,8 km/h S-SW 7,00 h 1,8 UV-I 322 W/m 14,5 km/h
08.04.2016 5,9 C 82 % 1011,3 hPa 0,0 l/m 0,7 km/h S-SW 5,25 h 1,7 UV-I 279 W/m 2,8 km/h
09.04.2016 7,8 C 67 % 1009,1 hPa 0,2 l/m 2,8 km/h SO 9,50 h 2,2 UV-I 395 W/m 8,4 km/h
10.04.2016 10,4 C 65 % 1012,4 hPa 0,0 l/m 4,5 km/h SO 7,08 h 2,1 UV-I 329 W/m 14,1 km/h
11.04.2016 8,8 C 77 % 1012,9 hPa 0,0 l/m 2,3 km/h SO 5,92 h 2,0 UV-I 309 W/m 14,9 km/h
12.04.2016 10,8 C 76 % 1008,7 hPa 0,0 l/m 0,0 km/h SO 6,42 h 1,8 UV-I 297 W/m 0,0 km/h
13.04.2016 9,9 C 81 % 1007,5 hPa 0,0 l/m 0,2 km/h N 3,25 h 1,8 UV-I 248 W/m 3,6 km/h
14.04.2016 8,9 C 80 % 1011,2 hPa 0,0 l/m 0,6 km/h NW 5,33 h 2,0 UV-I 321 W/m 4,0 km/h
15.04.2016 9,1 C 76 % 1002,1 hPa 3,6 l/m 2,0 km/h S 3,17 h 1,8 UV-I 223 W/m 6,8 km/h
16.04.2016 9,6 C 80 % 1001,5 hPa 0,6 l/m 6,4 km/h S 2,25 h 1,9 UV-I 224 W/m 19,3 km/h
17.04.2016 5,4 C 80 % 1012,3 hPa 0,0 l/m 0,9 km/h NW 3,83 h 1,7 UV-I 263 W/m 5,2 km/h
18.04.2016 7,3 C 64 % 1020,4 hPa 0,0 l/m 3,0 km/h W 6,58 h 2,2 UV-I 354 W/m 11,3 km/h
19.04.2016 8,1 C 71 % 1024,7 hPa 0,0 l/m 4,2 km/h NW 1,42 h 1,7 UV-I 177 W/m 18,1 km/h
20.04.2016 6,3 C 74 % 1029,5 hPa 0,0 l/m 0,4 km/h N-NW 9,67 h 2,6 UV-I 427 W/m 3,6 km/h
21.04.2016 10,4 C 61 % 1022,7 hPa 0,0 l/m 0,3 km/h N 11,67 h 2,8 UV-I 461 W/m 3,6 km/h
22.04.2016 8,6 C 64 % 1017,2 hPa 0,0 l/m 2,8 km/h N-NO 10,50 h 2,7 UV-I 418 W/m 10,5 km/h
23.04.2016 4,3 C 72 % 1012,1 hPa 0,2 l/m 4,1 km/h N-NW 1,92 h 1,4 UV-I 174 W/m 13,7 km/h
24.04.2016 2,2 C 90 % 1011,4 hPa 2,2 l/m 3,8 km/h NW 3,75 h 1,8 UV-I 256 W/m 14,1 km/h
25.04.2016 2,8 C 86 % 1004,0 hPa 9,4 l/m 12,5 km/h S-SW 1,17 h 1,7 UV-I 195 W/m 23,0 km/h
26.04.2016 2,2 C 92 % 998,0 hPa 4,8 l/m 13,4 km/h S-SW 2,00 h 1,4 UV-I 201 W/m 25,3 km/h
27.04.2016 1,8 C 94 % 1005,2 hPa 20,8 l/m 2,0 km/h S-SW 1,75 h 1,6 UV-I 171 W/m 10,4 km/h
28.04.2016 4,6 C 84 % 1014,4 hPa 1,6 l/m 2,6 km/h W 4,67 h 2,1 UV-I 323 W/m 6,0 km/h
29.04.2016 7,1 C 69 % 1015,3 hPa 0,2 l/m 5,5 km/h S 5,17 h 2,0 UV-I 300 W/m 7,3 km/h
30.04.2016 6,6 C 84 % 1018,7 hPa 0,0 l/m 2,3 km/h N 2,25 h 1,5 UV-I 213 W/m 10,9 km/h
Min-Datum 18.04.16 21.04.16 26.04.16 15 Tage 01.04.16 - - - - 01.04.16
Min-Zeit 05:10 14:15 14:05 - 00:00 - - - - 00:00
Minimum -1,6 C 33 % 996,5 hPa - 0,0 km/h - - - - 0,0 km/h
Max-Datum 27.04.16 25.04.16 20.04.16 27.04.16 29.04.16 - 21.04.16 29.04.16 28.04.16 26.04.16
Max-Zeit 14:20 08:15 11:55 11:05 15:50 - 19:15 13:10 12:35 15:00
Maximum 70,0 C 100 % 1031,1 hPa 20,8 l/m 29,2 km/h
S
- 11,58 h 5,2 UV-I 1107 W/m 51,5 km/h
S-SW
Durchschnitt 7,5 C 78 % 1012,0 hPa #57,4 l/m 3,2 km/h S-SW #147:30 h 1,9 UV-I 280 W/m 10,0 km/h

Durchschnitt Minimum Temp.3,0 C
Durchschnitt Maximum Temp.15,1 C